sensor_id;sensor_type;location;lat;lon;timestamp;temperature;humidity
73829;SHT30;62176;48.450;-4.466;2022-09-21T00:00:24;13.70;74.87
73829;SHT30;62176;48.450;-4.466;2022-09-21T00:02:50;13.67;74.99
73829;SHT30;62176;48.450;-4.466;2022-09-21T00:05:16;13.64;75.25
73829;SHT30;62176;48.450;-4.466;2022-09-21T00:07:42;13.61;75.16
73829;SHT30;62176;48.450;-4.466;2022-09-21T00:10:08;13.57;75.18
73829;SHT30;62176;48.450;-4.466;2022-09-21T00:12:34;13.54;75.04
73829;SHT30;62176;48.450;-4.466;2022-09-21T00:15:01;13.50;75.25
73829;SHT30;62176;48.450;-4.466;2022-09-21T00:17:26;13.50;75.42
73829;SHT30;62176;48.450;-4.466;2022-09-21T00:19:53;13.46;75.79
73829;SHT30;62176;48.450;-4.466;2022-09-21T00:22:18;13.43;75.89
73829;SHT30;62176;48.450;-4.466;2022-09-21T00:24:43;13.40;75.80
73829;SHT30;62176;48.450;-4.466;2022-09-21T00:27:09;13.39;75.72
73829;SHT30;62176;48.450;-4.466;2022-09-21T00:29:34;13.34;75.63
73829;SHT30;62176;48.450;-4.466;2022-09-21T00:32:00;13.33;75.38
73829;SHT30;62176;48.450;-4.466;2022-09-21T00:34:25;13.28;75.30
73829;SHT30;62176;48.450;-4.466;2022-09-21T00:36:51;13.27;75.12
73829;SHT30;62176;48.450;-4.466;2022-09-21T00:39:17;13.24;74.94
73829;SHT30;62176;48.450;-4.466;2022-09-21T00:41:42;13.20;74.74
73829;SHT30;62176;48.450;-4.466;2022-09-21T00:46:44;13.09;74.06
73829;SHT30;62176;48.450;-4.466;2022-09-21T00:49:10;13.05;73.85
73829;SHT30;62176;48.450;-4.466;2022-09-21T00:51:36;13.00;73.72
73829;SHT30;62176;48.450;-4.466;2022-09-21T00:54:10;12.93;73.66
73829;SHT30;62176;48.450;-4.466;2022-09-21T00:56:41;12.89;73.72
73829;SHT30;62176;48.450;-4.466;2022-09-21T00:59:08;12.85;74.12
73829;SHT30;62176;48.450;-4.466;2022-09-21T01:01:34;12.82;74.50
73829;SHT30;62176;48.450;-4.466;2022-09-21T01:04:02;12.78;74.85
73829;SHT30;62176;48.450;-4.466;2022-09-21T01:06:31;12.75;75.16
73829;SHT30;62176;48.450;-4.466;2022-09-21T01:08:57;12.72;75.45
73829;SHT30;62176;48.450;-4.466;2022-09-21T01:11:44;12.69;75.65
73829;SHT30;62176;48.450;-4.466;2022-09-21T01:14:52;12.68;75.67
73829;SHT30;62176;48.450;-4.466;2022-09-21T01:20:40;12.63;75.28
73829;SHT30;62176;48.450;-4.466;2022-09-21T01:26:57;12.55;74.99
73829;SHT30;62176;48.450;-4.466;2022-09-21T01:31:33;12.49;75.49
73829;SHT30;62176;48.450;-4.466;2022-09-21T01:34:06;12.48;75.63
73829;SHT30;62176;48.450;-4.466;2022-09-21T01:36:35;12.46;75.75
73829;SHT30;62176;48.450;-4.466;2022-09-21T01:39:07;12.41;75.84
73829;SHT30;62176;48.450;-4.466;2022-09-21T01:41:35;12.39;75.84
73829;SHT30;62176;48.450;-4.466;2022-09-21T01:44:06;12.41;75.86
73829;SHT30;62176;48.450;-4.466;2022-09-21T01:46:33;12.39;75.94
73829;SHT30;62176;48.450;-4.466;2022-09-21T01:49:05;12.38;76.10
73829;SHT30;62176;48.450;-4.466;2022-09-21T01:51:34;12.37;76.11
73829;SHT30;62176;48.450;-4.466;2022-09-21T01:54:21;12.35;75.80
73829;SHT30;62176;48.450;-4.466;2022-09-21T01:56:54;12.31;75.49
73829;SHT30;62176;48.450;-4.466;2022-09-21T02:00:10;12.20;74.84
73829;SHT30;62176;48.450;-4.466;2022-09-21T02:02:36;12.17;75.11
73829;SHT30;62176;48.450;-4.466;2022-09-21T02:05:05;12.14;75.02
73829;SHT30;62176;48.450;-4.466;2022-09-21T02:07:34;12.14;75.10
73829;SHT30;62176;48.450;-4.466;2022-09-21T02:10:02;12.11;75.19
73829;SHT30;62176;48.450;-4.466;2022-09-21T02:12:29;12.14;75.33
73829;SHT30;62176;48.450;-4.466;2022-09-21T02:14:56;12.10;75.30
73829;SHT30;62176;48.450;-4.466;2022-09-21T02:18:04;12.08;75.24
73829;SHT30;62176;48.450;-4.466;2022-09-21T02:20:29;12.04;75.30
73829;SHT30;62176;48.450;-4.466;2022-09-21T02:25:38;12.02;75.68
73829;SHT30;62176;48.450;-4.466;2022-09-21T02:30:58;12.00;76.07
73829;SHT30;62176;48.450;-4.466;2022-09-21T02:33:49;11.98;76.27
73829;SHT30;62176;48.450;-4.466;2022-09-21T02:36:30;11.97;76.46
73829;SHT30;62176;48.450;-4.466;2022-09-21T02:39:11;11.97;76.36
73829;SHT30;62176;48.450;-4.466;2022-09-21T02:44:33;11.95;76.04
73829;SHT30;62176;48.450;-4.466;2022-09-21T02:47:37;11.97;75.83
73829;SHT30;62176;48.450;-4.466;2022-09-21T02:50:04;11.97;75.55
73829;SHT30;62176;48.450;-4.466;2022-09-21T02:52:33;11.94;75.41
73829;SHT30;62176;48.450;-4.466;2022-09-21T02:55:00;11.91;75.39
73829;SHT30;62176;48.450;-4.466;2022-09-21T02:57:26;11.87;75.57
73829;SHT30;62176;48.450;-4.466;2022-09-21T02:59:51;11.91;76.11
73829;SHT30;62176;48.450;-4.466;2022-09-21T03:02:17;11.87;76.41
73829;SHT30;62176;48.450;-4.466;2022-09-21T03:04:44;11.90;76.60
73829;SHT30;62176;48.450;-4.466;2022-09-21T03:07:17;11.88;76.47
73829;SHT30;62176;48.450;-4.466;2022-09-21T03:09:43;11.91;76.28
73829;SHT30;62176;48.450;-4.466;2022-09-21T03:12:08;11.88;75.60
73829;SHT30;62176;48.450;-4.466;2022-09-21T03:14:33;11.87;75.05
73829;SHT30;62176;48.450;-4.466;2022-09-21T03:16:59;11.83;74.97
73829;SHT30;62176;48.450;-4.466;2022-09-21T03:19:25;11.83;75.16
73829;SHT30;62176;48.450;-4.466;2022-09-21T03:21:51;11.81;75.01
73829;SHT30;62176;48.450;-4.466;2022-09-21T03:24:16;11.73;74.57
73829;SHT30;62176;48.450;-4.466;2022-09-21T03:27:01;11.74;74.76
73829;SHT30;62176;48.450;-4.466;2022-09-21T03:29:27;11.70;74.84
73829;SHT30;62176;48.450;-4.466;2022-09-21T03:31:52;11.69;74.93
73829;SHT30;62176;48.450;-4.466;2022-09-21T03:34:20;11.69;75.28
73829;SHT30;62176;48.450;-4.466;2022-09-21T03:36:45;11.70;75.15
73829;SHT30;62176;48.450;-4.466;2022-09-21T03:39:13;11.66;75.20
73829;SHT30;62176;48.450;-4.466;2022-09-21T03:41:38;11.66;75.22
73829;SHT30;62176;48.450;-4.466;2022-09-21T03:44:04;11.64;75.45
73829;SHT30;62176;48.450;-4.466;2022-09-21T03:46:29;11.64;75.46
73829;SHT30;62176;48.450;-4.466;2022-09-21T03:48:54;11.64;75.37
73829;SHT30;62176;48.450;-4.466;2022-09-21T03:51:20;11.62;75.16
73829;SHT30;62176;48.450;-4.466;2022-09-21T03:53:46;11.63;74.97
73829;SHT30;62176;48.450;-4.466;2022-09-21T03:56:11;11.62;74.86
73829;SHT30;62176;48.450;-4.466;2022-09-21T03:58:37;11.62;75.04
73829;SHT30;62176;48.450;-4.466;2022-09-21T04:01:03;11.60;75.12
73829;SHT30;62176;48.450;-4.466;2022-09-21T04:03:29;11.60;75.87
73829;SHT30;62176;48.450;-4.466;2022-09-21T04:05:54;11.59;76.21
73829;SHT30;62176;48.450;-4.466;2022-09-21T04:08:20;11.60;76.49
73829;SHT30;62176;48.450;-4.466;2022-09-21T04:10:45;11.63;76.44
73829;SHT30;62176;48.450;-4.466;2022-09-21T04:13:10;11.64;76.56
73829;SHT30;62176;48.450;-4.466;2022-09-21T04:15:37;11.64;76.80
73829;SHT30;62176;48.450;-4.466;2022-09-21T04:18:03;11.66;76.71
73829;SHT30;62176;48.450;-4.466;2022-09-21T04:20:29;11.67;76.57
73829;SHT30;62176;48.450;-4.466;2022-09-21T04:22:54;11.64;76.75
73829;SHT30;62176;48.450;-4.466;2022-09-21T04:25:20;11.64;76.84
73829;SHT30;62176;48.450;-4.466;2022-09-21T04:27:46;11.66;76.53
73829;SHT30;62176;48.450;-4.466;2022-09-21T04:30:13;11.66;76.62
73829;SHT30;62176;48.450;-4.466;2022-09-21T04:32:39;11.66;76.52
73829;SHT30;62176;48.450;-4.466;2022-09-21T04:35:05;11.66;76.55
73829;SHT30;62176;48.450;-4.466;2022-09-21T04:37:30;11.63;76.37
73829;SHT30;62176;48.450;-4.466;2022-09-21T04:39:56;11.62;76.36
73829;SHT30;62176;48.450;-4.466;2022-09-21T04:42:21;11.63;76.19
73829;SHT30;62176;48.450;-4.466;2022-09-21T04:44:47;11.59;76.30
73829;SHT30;62176;48.450;-4.466;2022-09-21T04:47:12;11.60;76.34
73829;SHT30;62176;48.450;-4.466;2022-09-21T04:49:38;11.60;76.27
73829;SHT30;62176;48.450;-4.466;2022-09-21T04:52:04;11.56;75.92
73829;SHT30;62176;48.450;-4.466;2022-09-21T04:54:30;11.54;76.02
73829;SHT30;62176;48.450;-4.466;2022-09-21T04:56:55;11.53;76.08
73829;SHT30;62176;48.450;-4.466;2022-09-21T04:59:21;11.54;75.88
73829;SHT30;62176;48.450;-4.466;2022-09-21T05:01:46;11.52;75.46
73829;SHT30;62176;48.450;-4.466;2022-09-21T05:04:12;11.46;74.66
73829;SHT30;62176;48.450;-4.466;2022-09-21T05:06:37;11.46;74.50
73829;SHT30;62176;48.450;-4.466;2022-09-21T05:09:02;11.42;74.67
73829;SHT30;62176;48.450;-4.466;2022-09-21T05:11:46;11.37;75.06
73829;SHT30;62176;48.450;-4.466;2022-09-21T05:14:12;11.36;75.00
73829;SHT30;62176;48.450;-4.466;2022-09-21T05:16:38;11.35;75.43
73829;SHT30;62176;48.450;-4.466;2022-09-21T05:19:03;11.32;75.65
73829;SHT30;62176;48.450;-4.466;2022-09-21T05:21:29;11.32;75.96
73829;SHT30;62176;48.450;-4.466;2022-09-21T05:23:56;11.29;75.96
73829;SHT30;62176;48.450;-4.466;2022-09-21T05:26:22;11.30;76.30
73829;SHT30;62176;48.450;-4.466;2022-09-21T05:28:47;11.29;76.62
73829;SHT30;62176;48.450;-4.466;2022-09-21T05:33:52;11.29;76.79
73829;SHT30;62176;48.450;-4.466;2022-09-21T05:39:03;11.27;76.98
73829;SHT30;62176;48.450;-4.466;2022-09-21T05:41:28;11.27;77.17
73829;SHT30;62176;48.450;-4.466;2022-09-21T05:43:55;11.30;77.39
73829;SHT30;62176;48.450;-4.466;2022-09-21T05:49:04;11.29;78.69
73829;SHT30;62176;48.450;-4.466;2022-09-21T05:51:36;11.33;78.85
73829;SHT30;62176;48.450;-4.466;2022-09-21T05:54:34;11.33;78.67
73829;SHT30;62176;48.450;-4.466;2022-09-21T06:05:19;11.25;75.94
73829;SHT30;62176;48.450;-4.466;2022-09-21T06:07:45;11.25;75.79
73829;SHT30;62176;48.450;-4.466;2022-09-21T06:10:13;11.22;75.83
73829;SHT30;62176;48.450;-4.466;2022-09-21T06:12:40;11.19;75.46
73829;SHT30;62176;48.450;-4.466;2022-09-21T06:15:09;11.15;74.78
73829;SHT30;62176;48.450;-4.466;2022-09-21T06:17:35;11.12;74.90
73829;SHT30;62176;48.450;-4.466;2022-09-21T06:20:00;11.08;74.86
73829;SHT30;62176;48.450;-4.466;2022-09-21T06:22:27;11.03;75.09
73829;SHT30;62176;48.450;-4.466;2022-09-21T06:24:52;11.01;75.16
73829;SHT30;62176;48.450;-4.466;2022-09-21T06:27:18;11.02;75.41
73829;SHT30;62176;48.450;-4.466;2022-09-21T06:29:43;11.01;75.52
73829;SHT30;62176;48.450;-4.466;2022-09-21T06:32:08;11.01;75.74
73829;SHT30;62176;48.450;-4.466;2022-09-21T06:34:34;10.98;76.03
73829;SHT30;62176;48.450;-4.466;2022-09-21T06:36:59;10.99;76.14
73829;SHT30;62176;48.450;-4.466;2022-09-21T06:39:25;10.98;76.12
73829;SHT30;62176;48.450;-4.466;2022-09-21T06:41:51;10.99;76.07
73829;SHT30;62176;48.450;-4.466;2022-09-21T06:44:16;10.99;76.08
73829;SHT30;62176;48.450;-4.466;2022-09-21T06:46:42;11.01;75.89
73829;SHT30;62176;48.450;-4.466;2022-09-21T06:49:07;11.02;76.08
73829;SHT30;62176;48.450;-4.466;2022-09-21T06:51:33;11.02;76.44
73829;SHT30;62176;48.450;-4.466;2022-09-21T06:53:59;11.01;77.00
73829;SHT30;62176;48.450;-4.466;2022-09-21T06:56:25;11.03;77.18
73829;SHT30;62176;48.450;-4.466;2022-09-21T06:58:51;11.05;77.34
73829;SHT30;62176;48.450;-4.466;2022-09-21T07:01:17;11.08;77.38
73829;SHT30;62176;48.450;-4.466;2022-09-21T07:03:43;11.12;77.63
73829;SHT30;62176;48.450;-4.466;2022-09-21T07:06:10;11.16;78.34
73829;SHT30;62176;48.450;-4.466;2022-09-21T07:08:36;11.19;78.15
73829;SHT30;62176;48.450;-4.466;2022-09-21T07:11:05;11.23;78.38
73829;SHT30;62176;48.450;-4.466;2022-09-21T07:13:30;11.29;78.23
73829;SHT30;62176;48.450;-4.466;2022-09-21T07:15:56;11.35;78.46
73829;SHT30;62176;48.450;-4.466;2022-09-21T07:18:21;11.42;78.35
73829;SHT30;62176;48.450;-4.466;2022-09-21T07:20:47;11.47;78.25
73829;SHT30;62176;48.450;-4.466;2022-09-21T07:23:18;11.50;78.15
73829;SHT30;62176;48.450;-4.466;2022-09-21T07:25:45;11.56;78.19
73829;SHT30;62176;48.450;-4.466;2022-09-21T07:28:13;11.62;78.41
73829;SHT30;62176;48.450;-4.466;2022-09-21T07:30:39;11.63;79.08
73829;SHT30;62176;48.450;-4.466;2022-09-21T07:33:05;11.71;78.90
73829;SHT30;62176;48.450;-4.466;2022-09-21T07:35:31;11.80;78.67
73829;SHT30;62176;48.450;-4.466;2022-09-21T07:37:57;11.84;78.85
73829;SHT30;62176;48.450;-4.466;2022-09-21T07:40:23;11.91;78.60
73829;SHT30;62176;48.450;-4.466;2022-09-21T07:42:48;11.98;78.93
73829;SHT30;62176;48.450;-4.466;2022-09-21T07:45:14;12.05;78.69
73829;SHT30;62176;48.450;-4.466;2022-09-21T07:47:39;12.13;78.66
73829;SHT30;62176;48.450;-4.466;2022-09-21T07:50:05;12.17;79.25
73829;SHT30;62176;48.450;-4.466;2022-09-21T07:52:31;12.28;78.81
73829;SHT30;62176;48.450;-4.466;2022-09-21T07:54:56;12.35;79.38
73829;SHT30;62176;48.450;-4.466;2022-09-21T07:57:21;12.45;79.13
73829;SHT30;62176;48.450;-4.466;2022-09-21T08:00:06;12.55;78.92
73829;SHT30;62176;48.450;-4.466;2022-09-21T08:02:33;12.62;79.00
73829;SHT30;62176;48.450;-4.466;2022-09-21T08:04:58;12.72;79.02
73829;SHT30;62176;48.450;-4.466;2022-09-21T08:07:24;12.78;78.87
73829;SHT30;62176;48.450;-4.466;2022-09-21T08:09:49;12.83;79.76
73829;SHT30;62176;48.450;-4.466;2022-09-21T08:12:15;12.91;79.19
73829;SHT30;62176;48.450;-4.466;2022-09-21T08:14:45;13.03;78.54
73829;SHT30;62176;48.450;-4.466;2022-09-21T08:17:12;13.13;79.33
73829;SHT30;62176;48.450;-4.466;2022-09-21T08:19:38;13.20;80.11
73829;SHT30;62176;48.450;-4.466;2022-09-21T08:22:03;13.27;80.06
73829;SHT30;62176;48.450;-4.466;2022-09-21T08:24:29;13.40;79.22
73829;SHT30;62176;48.450;-4.466;2022-09-21T08:26:55;13.56;79.09
73829;SHT30;62176;48.450;-4.466;2022-09-21T08:29:21;13.67;78.74
73829;SHT30;62176;48.450;-4.466;2022-09-21T08:31:46;13.87;78.22
73829;SHT30;62176;48.450;-4.466;2022-09-21T08:34:11;13.94;78.17
73829;SHT30;62176;48.450;-4.466;2022-09-21T08:36:37;14.15;78.40
73829;SHT30;62176;48.450;-4.466;2022-09-21T08:39:06;14.28;77.01
73829;SHT30;62176;48.450;-4.466;2022-09-21T08:46:45;14.69;76.24
73829;SHT30;62176;48.450;-4.466;2022-09-21T08:49:17;14.82;76.09
73829;SHT30;62176;48.450;-4.466;2022-09-21T08:52:02;14.93;76.05
73829;SHT30;62176;48.450;-4.466;2022-09-21T08:57:10;15.27;74.48
73829;SHT30;62176;48.450;-4.466;2022-09-21T08:59:39;15.36;74.47
73829;SHT30;62176;48.450;-4.466;2022-09-21T09:10:23;15.89;72.33
73829;SHT30;62176;48.450;-4.466;2022-09-21T09:16:07;16.15;72.16
73829;SHT30;62176;48.450;-4.466;2022-09-21T09:21:14;16.36;70.39
73829;SHT30;62176;48.450;-4.466;2022-09-21T09:23:45;16.48;69.23
73829;SHT30;62176;48.450;-4.466;2022-09-21T09:29:10;16.66;68.95
73829;SHT30;62176;48.450;-4.466;2022-09-21T09:31:38;16.76;68.31
73829;SHT30;62176;48.450;-4.466;2022-09-21T09:36:59;16.93;67.57
73829;SHT30;62176;48.450;-4.466;2022-09-21T09:39:28;17.02;67.10
73829;SHT30;62176;48.450;-4.466;2022-09-21T09:42:15;17.10;65.37
73829;SHT30;62176;48.450;-4.466;2022-09-21T09:50:18;17.39;65.21
73829;SHT30;62176;48.450;-4.466;2022-09-21T09:52:47;17.49;65.13
73829;SHT30;62176;48.450;-4.466;2022-09-21T09:55:17;17.54;64.30
73829;SHT30;62176;48.450;-4.466;2022-09-21T09:57:45;17.62;62.52
73829;SHT30;62176;48.450;-4.466;2022-09-21T10:00:16;17.69;61.11
73829;SHT30;62176;48.450;-4.466;2022-09-21T10:02:54;17.77;63.54
73829;SHT30;62176;48.450;-4.466;2022-09-21T10:05:34;17.83;63.00
73829;SHT30;62176;48.450;-4.466;2022-09-21T10:08:00;17.92;62.49
73829;SHT30;62176;48.450;-4.466;2022-09-21T10:10:32;18.02;61.98
73829;SHT30;62176;48.450;-4.466;2022-09-21T10:13:27;18.13;61.43
73829;SHT30;62176;48.450;-4.466;2022-09-21T10:16:00;18.16;58.45
73829;SHT30;62176;48.450;-4.466;2022-09-21T10:18:53;18.26;61.14
73829;SHT30;62176;48.450;-4.466;2022-09-21T10:23:51;18.42;60.96
73829;SHT30;62176;48.450;-4.466;2022-09-21T10:26:18;18.50;60.51
73829;SHT30;62176;48.450;-4.466;2022-09-21T10:28:58;18.60;60.22
73829;SHT30;62176;48.450;-4.466;2022-09-21T10:31:28;18.64;58.45
73829;SHT30;62176;48.450;-4.466;2022-09-21T10:34:14;18.74;59.12
73829;SHT30;62176;48.450;-4.466;2022-09-21T10:36:51;18.84;60.98
73829;SHT30;62176;48.450;-4.466;2022-09-21T10:39:22;18.96;60.12
73829;SHT30;62176;48.450;-4.466;2022-09-21T10:42:01;19.04;59.86
73829;SHT30;62176;48.450;-4.466;2022-09-21T10:47:39;19.19;59.53
73829;SHT30;62176;48.450;-4.466;2022-09-21T10:50:24;19.28;58.12
73829;SHT30;62176;48.450;-4.466;2022-09-21T10:52:55;19.38;59.80
73829;SHT30;62176;48.450;-4.466;2022-09-21T10:55:23;19.45;57.13
73829;SHT30;62176;48.450;-4.466;2022-09-21T10:57:50;19.55;58.00
73829;SHT30;62176;48.450;-4.466;2022-09-21T11:02:58;19.55;58.09
73829;SHT30;62176;48.450;-4.466;2022-09-21T11:05:34;19.65;59.09
73829;SHT30;62176;48.450;-4.466;2022-09-21T11:08:02;19.73;58.77
73829;SHT30;62176;48.450;-4.466;2022-09-21T11:10:41;19.78;56.26
73829;SHT30;62176;48.450;-4.466;2022-09-21T11:15:53;19.99;58.16
73829;SHT30;62176;48.450;-4.466;2022-09-21T11:23:20;20.16;57.41
73829;SHT30;62176;48.450;-4.466;2022-09-21T11:26:05;20.23;55.18
73829;SHT30;62176;48.450;-4.466;2022-09-21T11:31:29;20.37;54.84
73829;SHT30;62176;48.450;-4.466;2022-09-21T11:34:12;20.44;55.60
73829;SHT30;62176;48.450;-4.466;2022-09-21T11:57:09;21.04;52.17
73829;SHT30;62176;48.450;-4.466;2022-09-21T12:02:57;21.34;50.95
73829;SHT30;62176;48.450;-4.466;2022-09-21T12:05:37;21.42;50.96
73829;SHT30;62176;48.450;-4.466;2022-09-21T12:08:32;21.48;49.04
73829;SHT30;62176;48.450;-4.466;2022-09-21T12:19:38;21.75;47.66
73829;SHT30;62176;48.450;-4.466;2022-09-21T12:22:17;21.86;46.52
73829;SHT30;62176;48.450;-4.466;2022-09-21T12:24:48;21.94;48.08
73829;SHT30;62176;48.450;-4.466;2022-09-21T12:35:41;22.18;45.46
73829;SHT30;62176;48.450;-4.466;2022-09-21T12:38:21;22.39;46.85
73829;SHT30;62176;48.450;-4.466;2022-09-21T12:40:54;22.55;46.32
73829;SHT30;62176;48.450;-4.466;2022-09-21T12:43:42;22.55;46.75
73829;SHT30;62176;48.450;-4.466;2022-09-21T12:46:18;22.60;47.93
73829;SHT30;62176;48.450;-4.466;2022-09-21T12:48:44;22.67;47.13
73829;SHT30;62176;48.450;-4.466;2022-09-21T12:51:15;22.74;45.17
73829;SHT30;62176;48.450;-4.466;2022-09-21T12:53:46;22.72;46.79
73829;SHT30;62176;48.450;-4.466;2022-09-21T13:01:32;23.07;44.32
73829;SHT30;62176;48.450;-4.466;2022-09-21T13:09:40;23.42;45.31
73829;SHT30;62176;48.450;-4.466;2022-09-21T13:12:08;23.53;44.95
73829;SHT30;62176;48.450;-4.466;2022-09-21T13:14:42;23.66;44.71
73829;SHT30;62176;48.450;-4.466;2022-09-21T13:17:21;23.60;44.44
73829;SHT30;62176;48.450;-4.466;2022-09-21T13:20:20;23.80;44.95
73829;SHT30;62176;48.450;-4.466;2022-09-21T13:22:46;23.96;43.94
73829;SHT30;62176;48.450;-4.466;2022-09-21T13:25:22;23.99;42.76
73829;SHT30;62176;48.450;-4.466;2022-09-21T13:33:00;24.13;44.23
73829;SHT30;62176;48.450;-4.466;2022-09-21T13:38:41;24.38;42.93
73829;SHT30;62176;48.450;-4.466;2022-09-21T13:43:44;24.55;42.79
73829;SHT30;62176;48.450;-4.466;2022-09-21T13:54:59;24.94;40.83
73829;SHT30;62176;48.450;-4.466;2022-09-21T13:57:35;24.98;40.49
73829;SHT30;62176;48.450;-4.466;2022-09-21T14:02:56;25.08;43.36
73829;SHT30;62176;48.450;-4.466;2022-09-21T14:05:29;25.20;41.19
73829;SHT30;62176;48.450;-4.466;2022-09-21T14:08:03;25.12;41.85
73829;SHT30;62176;48.450;-4.466;2022-09-21T14:10:36;25.15;41.18
73829;SHT30;62176;48.450;-4.466;2022-09-21T14:13:06;25.04;39.55
73829;SHT30;62176;48.450;-4.466;2022-09-21T14:15:46;24.95;41.75
73829;SHT30;62176;48.450;-4.466;2022-09-21T14:23:32;24.78;41.52
73829;SHT30;62176;48.450;-4.466;2022-09-21T14:25:59;24.55;41.45
73829;SHT30;62176;48.450;-4.466;2022-09-21T14:31:05;24.64;41.91
73829;SHT30;62176;48.450;-4.466;2022-09-21T14:33:45;24.57;41.43
73829;SHT30;62176;48.450;-4.466;2022-09-21T14:36:17;24.53;41.76
73829;SHT30;62176;48.450;-4.466;2022-09-21T14:38:49;24.51;42.64
73829;SHT30;62176;48.450;-4.466;2022-09-21T14:41:20;24.53;42.03
73829;SHT30;62176;48.450;-4.466;2022-09-21T14:43:49;24.44;41.19
73829;SHT30;62176;48.450;-4.466;2022-09-21T14:46:42;24.30;41.64
73829;SHT30;62176;48.450;-4.466;2022-09-21T15:00:43;23.89;43.26
73829;SHT30;62176;48.450;-4.466;2022-09-21T15:06:08;23.59;42.75
73829;SHT30;62176;48.450;-4.466;2022-09-21T15:12:13;23.62;45.55
73829;SHT30;62176;48.450;-4.466;2022-09-21T15:14:46;23.63;46.08
73829;SHT30;62176;48.450;-4.466;2022-09-21T15:19:48;23.80;47.59
73829;SHT30;62176;48.450;-4.466;2022-09-21T15:22:15;23.80;48.03
73829;SHT30;62176;48.450;-4.466;2022-09-21T15:24:55;23.70;48.06
73829;SHT30;62176;48.450;-4.466;2022-09-21T15:27:26;23.70;48.55
73829;SHT30;62176;48.450;-4.466;2022-09-21T15:29:57;23.69;48.92
73829;SHT30;62176;48.450;-4.466;2022-09-21T15:35:03;23.67;48.84
73829;SHT30;62176;48.450;-4.466;2022-09-21T15:37:34;23.62;49.21
73829;SHT30;62176;48.450;-4.466;2022-09-21T15:40:13;23.56;50.02
73829;SHT30;62176;48.450;-4.466;2022-09-21T15:45:20;23.33;49.87
73829;SHT30;62176;48.450;-4.466;2022-09-21T15:47:45;23.19;50.49
73829;SHT30;62176;48.450;-4.466;2022-09-21T15:50:15;23.07;51.08
73829;SHT30;62176;48.450;-4.466;2022-09-21T15:52:47;23.05;51.17
73829;SHT30;62176;48.450;-4.466;2022-09-21T15:55:18;22.95;51.33
73829;SHT30;62176;48.450;-4.466;2022-09-21T15:57:50;22.90;51.55
73829;SHT30;62176;48.450;-4.466;2022-09-21T16:00:20;22.87;51.67
73829;SHT30;62176;48.450;-4.466;2022-09-21T16:03:15;23.01;51.89
73829;SHT30;62176;48.450;-4.466;2022-09-21T16:05:49;23.11;50.92
73829;SHT30;62176;48.450;-4.466;2022-09-21T16:08:29;23.15;50.96
73829;SHT30;62176;48.450;-4.466;2022-09-21T16:13:36;23.02;51.01
73829;SHT30;62176;48.450;-4.466;2022-09-21T16:16:20;23.01;50.91
73829;SHT30;62176;48.450;-4.466;2022-09-21T16:18:50;23.19;51.11
73829;SHT30;62176;48.450;-4.466;2022-09-21T16:21:33;23.25;50.01
73829;SHT30;62176;48.450;-4.466;2022-09-21T16:24:20;23.32;49.58
73829;SHT30;62176;48.450;-4.466;2022-09-21T16:27:00;23.32;50.73
73829;SHT30;62176;48.450;-4.466;2022-09-21T16:29:36;23.25;50.02
73829;SHT30;62176;48.450;-4.466;2022-09-21T16:32:25;23.05;49.98
73829;SHT30;62176;48.450;-4.466;2022-09-21T16:34:52;22.91;50.35
73829;SHT30;62176;48.450;-4.466;2022-09-21T16:37:28;22.63;51.00
73829;SHT30;62176;48.450;-4.466;2022-09-21T16:39:56;22.44;51.51
73829;SHT30;62176;48.450;-4.466;2022-09-21T16:42:24;22.27;51.29
73829;SHT30;62176;48.450;-4.466;2022-09-21T16:44:57;22.12;51.55
73829;SHT30;62176;48.450;-4.466;2022-09-21T16:47:24;22.32;51.27
73829;SHT30;62176;48.450;-4.466;2022-09-21T16:49:51;22.74;50.46
73829;SHT30;62176;48.450;-4.466;2022-09-21T16:52:24;23.07;50.82
73829;SHT30;62176;48.450;-4.466;2022-09-21T16:54:50;23.20;49.80
73829;SHT30;62176;48.450;-4.466;2022-09-21T16:57:16;23.29;49.35
73829;SHT30;62176;48.450;-4.466;2022-09-21T16:59:42;23.29;49.58
73829;SHT30;62176;48.450;-4.466;2022-09-21T17:02:11;23.18;49.99
73829;SHT30;62176;48.450;-4.466;2022-09-21T17:04:38;23.12;49.71
73829;SHT30;62176;48.450;-4.466;2022-09-21T17:07:04;22.95;50.31
73829;SHT30;62176;48.450;-4.466;2022-09-21T17:09:37;22.64;50.36
73829;SHT30;62176;48.450;-4.466;2022-09-21T17:12:05;22.39;51.16
73829;SHT30;62176;48.450;-4.466;2022-09-21T17:14:33;22.06;52.60
73829;SHT30;62176;48.450;-4.466;2022-09-21T17:17:02;21.99;53.90
73829;SHT30;62176;48.450;-4.466;2022-09-21T17:19:31;21.56;55.53
73829;SHT30;62176;48.450;-4.466;2022-09-21T17:21:57;21.37;56.19
73829;SHT30;62176;48.450;-4.466;2022-09-21T17:24:23;21.05;57.24
73829;SHT30;62176;48.450;-4.466;2022-09-21T17:26:50;20.87;57.29
73829;SHT30;62176;48.450;-4.466;2022-09-21T17:29:26;20.78;57.48
73829;SHT30;62176;48.450;-4.466;2022-09-21T17:31:56;20.61;57.35
73829;SHT30;62176;48.450;-4.466;2022-09-21T17:34:26;20.47;56.60
73829;SHT30;62176;48.450;-4.466;2022-09-21T17:36:53;20.34;57.41
73829;SHT30;62176;48.450;-4.466;2022-09-21T17:39:20;20.27;57.71
73829;SHT30;62176;48.450;-4.466;2022-09-21T17:42:01;20.22;58.32
73829;SHT30;62176;48.450;-4.466;2022-09-21T17:44:40;20.06;59.90
73829;SHT30;62176;48.450;-4.466;2022-09-21T17:47:20;19.86;62.05
73829;SHT30;62176;48.450;-4.466;2022-09-21T17:49:47;19.66;61.85
73829;SHT30;62176;48.450;-4.466;2022-09-21T17:52:22;19.57;62.12
73829;SHT30;62176;48.450;-4.466;2022-09-21T17:55:10;19.36;63.06
73829;SHT30;62176;48.450;-4.466;2022-09-21T17:57:54;19.32;63.66
73829;SHT30;62176;48.450;-4.466;2022-09-21T18:00:39;19.19;64.65
73829;SHT30;62176;48.450;-4.466;2022-09-21T18:03:20;18.97;65.19
73829;SHT30;62176;48.450;-4.466;2022-09-21T18:05:47;18.78;66.08
73829;SHT30;62176;48.450;-4.466;2022-09-21T18:08:15;18.60;66.40
73829;SHT30;62176;48.450;-4.466;2022-09-21T18:10:47;18.50;67.28
73829;SHT30;62176;48.450;-4.466;2022-09-21T18:13:27;18.44;66.62
73829;SHT30;62176;48.450;-4.466;2022-09-21T18:21:12;18.14;69.12
73829;SHT30;62176;48.450;-4.466;2022-09-21T18:23:49;18.06;68.64
73829;SHT30;62176;48.450;-4.466;2022-09-21T18:26:17;18.01;68.81
73829;SHT30;62176;48.450;-4.466;2022-09-21T18:28:46;17.83;69.88
73829;SHT30;62176;48.450;-4.466;2022-09-21T18:42:47;17.32;72.28
73829;SHT30;62176;48.450;-4.466;2022-09-21T18:45:23;17.17;72.79
73829;SHT30;62176;48.450;-4.466;2022-09-21T18:53:45;16.91;73.88
73829;SHT30;62176;48.450;-4.466;2022-09-21T18:56:12;16.88;73.79
73829;SHT30;62176;48.450;-4.466;2022-09-21T18:58:38;16.84;73.71
73829;SHT30;62176;48.450;-4.466;2022-09-21T19:01:05;16.80;73.93
73829;SHT30;62176;48.450;-4.466;2022-09-21T19:03:31;16.73;73.71
73829;SHT30;62176;48.450;-4.466;2022-09-21T19:23:03;16.39;75.48
73829;SHT30;62176;48.450;-4.466;2022-09-21T19:25:43;16.36;75.98
73829;SHT30;62176;48.450;-4.466;2022-09-21T19:30:38;16.26;75.94
73829;SHT30;62176;48.450;-4.466;2022-09-21T19:33:18;16.28;75.65
73829;SHT30;62176;48.450;-4.466;2022-09-21T19:35:45;16.23;75.74